Time;durP1;ratioP1;P1;durP2;ratioP2;P2;SDS_P1;SDS_P2;PMS_P1;PMS_P2;Temp;Humidity;BMP_temperature;BMP_pressure;BME280_temperature;BME280_humidity;BME280_pressure;Samples;Min_cycle;Max_cycle;Signal;HPM_P1;HPM_P2
2023/10/10 00:01:03;;;;;;;13.17;5.80;;;;;;;13.80;98.98;98695.81;5116157;28;20648;-80
2023/10/10 00:03:32;;;;;;;13.23;6.03;;;;;;;13.80;98.96;98695.81;5115746;28;20210;-80
2023/10/10 00:06:00;;;;;;;12.20;5.73;;;;;;;13.75;99.37;98692.63;5114583;28;20202;-80
2023/10/10 00:08:33;;;;;;;12.73;5.93;;;;;;;13.71;99.80;98690.31;5116081;28;20206;-80
2023/10/10 00:11:00;;;;;;;12.27;5.90;;;;;;;13.69;100.00;98686.94;5115389;28;20263;-80
2023/10/10 00:13:27;;;;;;;11.50;6.03;;;;;;;13.70;100.00;98688.63;5115314;28;20227;-80
2023/10/10 00:15:56;;;;;;;11.67;6.10;;;;;;;13.64;100.00;98684.59;5116002;28;20236;-80
2023/10/10 00:18:24;;;;;;;13.83;6.87;;;;;;;13.70;100.00;98694.75;5115969;28;20217;-80
2023/10/10 00:21:06;;;;;;;13.03;6.23;;;;;;;13.65;100.00;98696.94;5115479;28;20230;-80
2023/10/10 00:23:42;;;;;;;11.27;5.73;;;;;;;13.66;100.00;98695.09;5114874;28;20202;-80
2023/10/10 00:26:12;;;;;;;14.50;5.40;;;;;;;13.60;100.00;98684.91;5115496;28;20215;-80
2023/10/10 00:28:41;;;;;;;11.47;5.83;;;;;;;13.60;100.00;98698.19;5115676;28;20306;-80
2023/10/10 00:31:10;;;;;;;11.73;5.60;;;;;;;13.61;100.00;98686.63;5115243;28;20230;-80
2023/10/10 00:33:38;;;;;;;17.00;4.97;;;;;;;13.57;100.00;98682.50;5115046;28;20208;-80
2023/10/10 00:36:06;;;;;;;10.60;5.40;;;;;;;13.57;100.00;98682.50;5115198;28;20233;-80
2023/10/10 00:38:33;;;;;;;12.70;5.57;;;;;;;13.56;100.00;98678.16;5115281;28;20668;-80
2023/10/10 00:41:05;;;;;;;12.63;5.70;;;;;;;13.53;100.00;98678.38;5115447;28;20236;-80
2023/10/10 00:43:32;;;;;;;12.07;5.80;;;;;;;13.50;100.00;98681.25;5114973;28;20210;-80
2023/10/10 00:46:04;;;;;;;10.43;5.33;;;;;;;13.45;100.00;98680.72;5115401;28;20206;-80
2023/10/10 00:48:33;;;;;;;10.93;5.50;;;;;;;13.38;100.00;98676.84;5115430;27;20685;-80
2023/10/10 00:51:06;;;;;;;11.40;5.10;;;;;;;13.33;100.00;98668.34;5115284;28;20320;-80
2023/10/10 00:53:36;;;;;;;10.70;4.63;;;;;;;13.28;100.00;98675.78;5114719;28;20293;-80
2023/10/10 00:56:06;;;;;;;11.50;4.97;;;;;;;13.23;100.00;98673.47;5115111;28;20238;-80
2023/10/10 00:58:37;;;;;;;10.80;4.80;;;;;;;13.15;100.00;98672.31;5115486;28;20729;-80
2023/10/10 01:01:08;;;;;;;10.97;4.73;;;;;;;13.03;100.00;98675.81;5114126;28;20271;-80
2023/10/10 01:03:35;;;;;;;10.87;4.90;;;;;;;12.89;100.00;98678.56;5114138;28;20210;-80
2023/10/10 01:06:14;;;;;;;12.13;5.70;;;;;;;12.77;100.00;98680.25;5114549;28;20648;-80
2023/10/10 01:08:55;;;;;;;11.80;5.03;;;;;;;12.68;100.00;98672.09;5114468;28;20675;-80
2023/10/10 01:11:22;;;;;;;14.07;5.47;;;;;;;12.59;100.00;98678.03;5114530;28;20606;-80
2023/10/10 01:13:49;;;;;;;10.40;4.70;;;;;;;12.48;100.00;98684.03;5114764;28;20206;-80
2023/10/10 01:16:17;;;;;;;12.37;5.00;;;;;;;12.50;100.00;98681.31;5114481;28;20236;-79
2023/10/10 01:18:51;;;;;;;9.27;5.03;;;;;;;12.48;100.00;98680.56;5114755;28;20304;-80
2023/10/10 01:21:28;;;;;;;11.63;5.20;;;;;;;12.44;100.00;98681.72;5114292;27;20664;-79
2023/10/10 01:23:58;;;;;;;11.77;5.10;;;;;;;12.41;100.00;98685.41;5114495;28;20679;-80
2023/10/10 01:26:28;;;;;;;13.27;5.07;;;;;;;12.37;100.00;98677.78;5114372;28;20265;-79
2023/10/10 01:28:55;;;;;;;14.20;5.80;;;;;;;12.34;100.00;98673.53;5114499;28;20211;-80
2023/10/10 01:31:24;;;;;;;12.07;5.87;;;;;;;12.29;100.00;98672.16;5114331;28;20316;-80
2023/10/10 01:33:50;;;;;;;12.63;5.80;;;;;;;12.20;100.00;98670.97;5114500;28;20210;-80
2023/10/10 01:36:21;;;;;;;12.43;6.27;;;;;;;12.12;100.00;98665.34;5114152;28;20229;-80
2023/10/10 01:39:10;;;;;;;13.03;5.83;;;;;;;12.03;100.00;98670.38;5113994;28;20599;-80
2023/10/10 01:41:40;;;;;;;17.27;5.80;;;;;;;12.01;100.00;98667.88;5113415;28;20717;-79
2023/10/10 01:44:11;;;;;;;11.03;5.70;;;;;;;12.03;100.00;98671.25;5114052;28;20239;-80
2023/10/10 01:46:37;;;;;;;17.20;6.00;;;;;;;12.00;100.00;98665.31;5113532;28;20667;-79
2023/10/10 01:49:08;;;;;;;12.77;5.53;;;;;;;11.98;100.00;98672.53;5114094;28;20225;-79
2023/10/10 01:51:37;;;;;;;12.53;5.97;;;;;;;12.02;100.00;98669.56;5113121;28;20307;-79
2023/10/10 01:54:13;;;;;;;12.73;5.50;;;;;;;12.02;100.00;98674.84;5113541;28;20212;-79
2023/10/10 01:56:40;;;;;;;14.17;5.67;;;;;;;11.99;100.00;98667.09;5113866;27;20224;-79
2023/10/10 01:59:10;;;;;;;10.37;5.30;;;;;;;11.96;100.00;98669.09;5113485;28;20680;-79
2023/10/10 02:01:38;;;;;;;12.27;5.23;;;;;;;11.93;100.00;98664.84;5113099;28;20229;-79
2023/10/10 02:04:06;;;;;;;10.03;5.90;;;;;;;11.89;100.00;98667.81;5113487;28;20240;-80
2023/10/10 02:06:35;;;;;;;12.27;5.83;;;;;;;11.90;100.00;98667.72;5113202;28;20212;-80
2023/10/10 02:09:11;;;;;;;14.57;6.17;;;;;;;11.88;100.00;98668.78;5113086;28;20220;-79
2023/10/10 02:11:49;;;;;;;14.67;5.90;;;;;;;11.92;100.00;98670.28;5112437;28;20224;-79
2023/10/10 02:14:18;;;;;;;12.63;5.33;;;;;;;11.93;100.00;98666.66;5112776;28;20768;-80
2023/10/10 02:16:47;;;;;;;9.80;4.93;;;;;;;11.94;100.00;98665.72;5112925;28;20233;-80
2023/10/10 02:19:27;;;;;;;11.97;5.30;;;;;;;11.95;100.00;98656.81;5112971;28;20264;-80
2023/10/10 02:22:03;;;;;;;12.13;5.40;;;;;;;11.98;100.00;98656.63;5112202;28;20244;-79
2023/10/10 02:24:39;;;;;;;11.20;5.30;;;;;;;11.93;100.00;98664.03;5112977;28;20217;-80
2023/10/10 02:27:12;;;;;;;13.40;5.80;;;;;;;11.92;100.00;98659.69;5113034;28;20258;-79
2023/10/10 02:29:47;;;;;;;11.63;5.80;;;;;;;11.95;100.00;98659.47;5112869;28;20741;-80
2023/10/10 02:32:19;;;;;;;12.20;6.13;;;;;;;11.94;100.00;98660.41;5112121;28;20264;-80
2023/10/10 02:34:55;;;;;;;13.60;6.10;;;;;;;11.91;100.00;98660.59;5113035;28;20209;-79
2023/10/10 02:37:41;;;;;;;12.93;6.40;;;;;;;11.86;100.00;98662.75;5112724;28;20229;-79
2023/10/10 02:40:14;;;;;;;11.93;5.80;;;;;;;11.83;100.00;98669.06;5112886;28;20210;-79
2023/10/10 02:42:50;;;;;;;11.97;5.33;;;;;;;11.82;100.00;98666.53;5111858;28;20241;-80
2023/10/10 02:45:27;;;;;;;10.67;5.57;;;;;;;11.83;100.00;98674.38;5112364;28;20226;-80
2023/10/10 02:47:54;;;;;;;16.00;6.50;;;;;;;11.79;100.00;98667.56;5112841;28;20589;-79
2023/10/10 02:53:07;;;;;;;11.27;5.40;;;;;;;11.75;100.00;98662.59;5111535;28;20551;-79
2023/10/10 02:55:35;;;;;;;10.27;5.03;;;;;;;11.73;100.00;98664.50;5112654;28;20216;-79
2023/10/10 02:58:20;;;;;;;12.80;6.00;;;;;;;11.70;100.00;98667.31;5112683;28;20209;-79
2023/10/10 03:00:47;;;;;;;17.73;6.10;;;;;;;11.68;100.00;98659.47;5112472;28;20644;-79
2023/10/10 03:03:18;;;;;;;12.37;5.90;;;;;;;11.67;100.00;98657.78;5111637;28;20206;-80
2023/10/10 03:05:50;;;;;;;11.67;5.53;;;;;;;11.67;100.00;98659.59;5112359;28;20262;-80
2023/10/10 03:08:18;;;;;;;13.53;6.20;;;;;;;11.67;100.00;98651.66;5112646;28;20235;-80
2023/10/10 03:10:53;;;;;;;15.13;5.93;;;;;;;11.67;100.00;98652.47;5111960;28;20259;-79
2023/10/10 03:13:36;;;;;;;12.67;5.90;;;;;;;11.66;100.00;98655.22;5111926;28;20208;-79
2023/10/10 03:16:41;;;;;;;12.23;5.70;;;;;;;11.63;100.00;98650.16;5112423;28;20264;-80
2023/10/10 03:19:27;;;;;;;9.87;4.83;;;;;;;11.61;100.00;98655.53;5111944;28;20208;-80
2023/10/10 03:22:19;;;;;;;12.97;4.83;;;;;;;11.59;100.00;98656.56;5111556;28;20605;-80
2023/10/10 03:24:50;;;;;;;11.90;5.70;;;;;;;11.55;100.00;98663.00;5111866;28;20213;-79
2023/10/10 03:27:53;;;;;;;10.83;5.93;;;;;;;11.54;100.00;98659.50;5115890;28;20216;-79
2023/10/10 03:30:33;;;;;;;12.00;5.73;;;;;;;11.49;100.00;98658.09;5116134;28;20215;-79
2023/10/10 03:33:10;;;;;;;10.53;5.50;;;;;;;11.42;100.00;98659.41;5115821;28;20580;-79
2023/10/10 03:35:59;;;;;;;14.60;5.87;;;;;;;11.36;100.00;98663.31;5116387;28;20233;-80
2023/10/10 05:25:55;;;;;;;12.80;6.57;;;;;;;10.74;100.00;98665.56;5114504;28;20568;-79
2023/10/10 05:28:22;;;;;;;13.50;5.60;;;;;;;10.71;100.00;98661.31;5115434;28;20206;-79
2023/10/10 05:30:48;;;;;;;16.07;6.00;;;;;;;10.70;100.00;98666.72;5114981;28;20236;-80
2023/10/10 05:33:19;;;;;;;13.83;5.80;;;;;;;10.67;100.00;98662.44;5114078;28;20212;-80
2023/10/10 05:35:47;;;;;;;11.40;5.83;;;;;;;10.64;100.00;98661.78;5114304;28;20226;-79
2023/10/10 05:38:15;;;;;;;12.63;5.80;;;;;;;10.58;100.00;98659.53;5114630;28;20671;-80
2023/10/10 05:40:43;;;;;;;12.10;5.40;;;;;;;10.51;100.00;98660.84;5113913;28;20201;-79
2023/10/10 05:43:15;;;;;;;10.77;5.63;;;;;;;10.49;100.00;98668.00;5113132;27;20672;-79
2023/10/10 05:45:42;;;;;;;13.23;5.77;;;;;;;10.47;100.00;98669.88;5113447;28;20577;-79
2023/10/10 05:48:08;;;;;;;14.20;5.90;;;;;;;10.46;100.00;98669.03;5112573;28;20687;-79
2023/10/10 05:50:35;;;;;;;10.80;5.93;;;;;;;10.52;100.00;98668.66;5112784;28;20210;-80
2023/10/10 05:53:03;;;;;;;15.20;6.90;;;;;;;10.56;100.00;98675.47;5113160;28;20561;-79
2023/10/10 05:55:31;;;;;;;12.67;5.87;;;;;;;10.59;100.00;98674.44;5113443;28;20226;-79
2023/10/10 05:57:58;;;;;;;16.43;6.20;;;;;;;10.63;100.00;98673.28;5113302;28;20297;-79
2023/10/10 06:00:27;;;;;;;13.03;5.83;;;;;;;10.66;100.00;98683.69;5113552;28;20202;-79
2023/10/10 06:02:53;;;;;;;12.13;5.57;;;;;;;10.74;100.00;98684.91;5112676;28;20307;-79
2023/10/10 06:05:20;;;;;;;13.63;6.03;;;;;;;10.76;100.00;98680.38;5113305;28;20219;-79
2023/10/10 06:07:49;;;;;;;10.83;5.50;;;;;;;10.81;100.00;98685.38;5113328;28;20204;-79
2023/10/10 06:10:17;;;;;;;16.20;6.63;;;;;;;10.81;100.00;98680.09;5113226;28;20616;-79
2023/10/10 06:12:44;;;;;;;11.80;6.23;;;;;;;10.86;100.00;98678.03;5112682;28;20233;-79
2023/10/10 06:15:16;;;;;;;13.87;6.13;;;;;;;10.92;100.00;98678.50;5113130;28;20207;-78
2023/10/10 06:17:59;;;;;;;13.87;6.67;;;;;;;10.94;100.00;98684.53;5113102;28;20652;-80
2023/10/10 06:20:26;;;;;;;13.40;6.10;;;;;;;11.00;100.00;98686.81;5112095;28;20775;-80
2023/10/10 06:22:54;;;;;;;13.43;5.50;;;;;;;11.02;100.00;98684.91;5110225;28;20213;-80
2023/10/10 06:25:23;;;;;;;14.07;6.30;;;;;;;11.07;100.00;98682.00;5101345;28;20271;-78
2023/10/10 06:27:54;;;;;;;11.40;5.73;;;;;;;11.15;100.00;98690.28;5091950;28;20237;-80
2023/10/10 06:30:20;;;;;;;9.10;5.27;;;;;;;11.17;100.00;98686.59;5091161;28;20244;-78
2023/10/10 06:32:48;;;;;;;10.73;5.23;;;;;;;11.24;100.00;98684.41;5090553;28;20225;-79
2023/10/10 06:35:27;;;;;;;11.00;5.90;;;;;;;11.32;100.00;98687.44;5092573;28;20214;-83
2023/10/10 06:37:55;;;;;;;13.00;5.87;;;;;;;11.41;100.00;98685.06;5092650;28;20719;-79
2023/10/10 06:40:28;;;;;;;11.93;6.30;;;;;;;11.47;100.00;98691.75;5093006;28;20233;-80
2023/10/10 06:42:56;;;;;;;13.60;5.77;;;;;;;11.59;100.00;98696.28;5091961;28;20210;-78
2023/10/10 06:45:24;;;;;;;13.67;6.10;;;;;;;11.59;100.00;98691.00;5092297;28;20207;-78
2023/10/10 06:47:52;;;;;;;13.77;6.50;;;;;;;11.57;100.00;98696.34;5091411;28;20234;-78
2023/10/10 06:50:22;;;;;;;16.63;6.20;;;;;;;11.68;100.00;98704.50;5091710;28;20292;-78
2023/10/10 06:52:52;;;;;;;12.40;6.00;;;;;;;11.67;100.00;98688.72;5091237;28;20233;-78
2023/10/10 06:55:22;;;;;;;16.63;6.30;;;;;;;11.72;100.00;98691.91;5091941;28;20204;-77
2023/10/10 06:57:57;;;;;;;14.87;6.87;;;;;;;11.73;100.00;98688.31;5092420;28;20634;-79
2023/10/10 07:00:42;;;;;;;13.67;6.77;;;;;;;11.86;100.00;98687.41;5092109;28;20262;-77
2023/10/10 07:03:10;;;;;;;12.32;6.90;;;;;;;11.90;100.00;98691.56;5090003;28;20531;-78
2023/10/10 07:05:39;;;;;;;9.37;5.80;;;;;;;11.99;100.00;98701.53;5089957;28;20220;-78
2023/10/10 07:08:19;;;;;;;13.43;6.37;;;;;;;12.06;100.00;98697.56;5091326;28;20270;-78
2023/10/10 07:10:46;;;;;;;15.47;5.83;;;;;;;12.13;100.00;98697.97;5091287;28;20597;-78
2023/10/10 07:13:14;;;;;;;10.80;5.70;;;;;;;12.28;100.00;98694.31;5089680;28;20338;-78
2023/10/10 07:15:42;;;;;;;11.77;6.00;;;;;;;12.58;100.00;98700.19;5090621;28;20216;-78
2023/10/10 07:18:14;;;;;;;13.83;6.27;;;;;;;12.64;100.00;98699.75;5091730;28;20705;-78
2023/10/10 07:23:25;;;;;;;14.20;5.60;;;;;;;12.87;100.00;98691.06;5091530;28;20202;-78
2023/10/10 07:25:59;;;;;;;12.43;5.87;;;;;;;12.95;100.00;98694.06;5091779;28;20202;-77
2023/10/10 07:28:26;;;;;;;13.43;6.60;;;;;;;13.07;100.00;98688.75;5091293;28;20212;-78
2023/10/10 07:30:52;;;;;;;15.80;6.13;;;;;;;13.14;100.00;98699.81;5091179;28;20229;-77
2023/10/10 07:33:29;;;;;;;14.33;6.10;;;;;;;13.19;100.00;98698.50;5090902;28;20206;-77
2023/10/10 07:35:56;;;;;;;14.47;5.37;;;;;;;13.25;100.00;98691.91;5091608;28;20217;-77
2023/10/10 07:38:27;;;;;;;13.80;6.67;;;;;;;13.34;100.00;98701.88;5091341;28;20209;-77
2023/10/10 07:40:54;;;;;;;15.07;6.80;;;;;;;13.42;100.00;98700.38;5091205;28;20298;-77
2023/10/10 07:43:26;;;;;;;11.50;5.53;;;;;;;13.54;100.00;98703.97;5090245;28;20221;-77
2023/10/10 07:45:54;;;;;;;13.80;6.30;;;;;;;13.69;100.00;98692.25;5091470;28;20242;-80
2023/10/10 07:51:07;;;;;;;10.23;5.73;;;;;;;13.90;100.00;98706.59;5088357;28;20225;-80
2023/10/10 07:53:42;;;;;;;12.67;5.83;;;;;;;14.04;100.00;98709.06;5090806;28;20229;-80
2023/10/10 07:56:09;;;;;;;11.33;5.87;;;;;;;14.15;100.00;98706.47;5091118;28;20261;-78
2023/10/10 07:58:43;;;;;;;11.27;5.57;;;;;;;14.26;100.00;98698.59;5091601;28;20210;-80
2023/10/10 08:01:16;;;;;;;12.93;6.27;;;;;;;14.33;100.00;98700.69;5091105;28;20647;-79
2023/10/10 08:03:47;;;;;;;10.90;6.27;;;;;;;14.43;100.00;98703.50;5090713;28;20693;-80
2023/10/10 08:06:17;;;;;;;12.67;6.10;;;;;;;14.51;100.00;98704.63;5091197;28;20694;-80
2023/10/10 08:08:44;;;;;;;12.20;5.57;;;;;;;14.55;100.00;98705.22;5091068;28;20250;-80
2023/10/10 08:11:13;;;;;;;11.93;6.00;;;;;;;14.60;100.00;98705.72;5090977;28;20230;-79
2023/10/10 08:13:48;;;;;;;17.33;6.53;;;;;;;14.64;100.00;98709.81;5092468;28;20214;-80
2023/10/10 08:16:20;;;;;;;14.50;6.33;;;;;;;14.74;100.00;98713.50;5094749;28;20573;-80
2023/10/10 08:18:52;;;;;;;12.07;5.87;;;;;;;14.89;100.00;98704.31;5095030;28;20229;-80
2023/10/10 08:21:22;;;;;;;14.77;5.97;;;;;;;15.02;100.00;98699.75;5093826;28;20284;-81
2023/10/10 08:23:53;;;;;;;12.63;5.80;;;;;;;15.13;100.00;98703.25;5094494;28;20213;-80
2023/10/10 08:26:24;;;;;;;11.97;5.57;;;;;;;15.23;100.00;98708.72;5094299;28;20550;-83
2023/10/10 08:28:52;;;;;;;11.97;5.57;;;;;;;15.29;100.00;98702.91;5094621;28;20298;-86
2023/10/10 08:31:18;;;;;;;11.97;5.57;;;;;;;15.41;100.00;98707.28;5094940;28;20752;-80
2023/10/10 08:33:46;;;;;;;15.07;6.00;;;;;;;15.55;100.00;98699.91;5093839;28;20213;-80
2023/10/10 08:36:23;;;;;;;12.60;5.63;;;;;;;15.68;100.00;98710.41;5094325;28;20590;-80
2023/10/10 08:38:50;;;;;;;13.40;6.23;;;;;;;15.79;100.00;98702.38;5094293;28;20210;-80
2023/10/10 08:41:20;;;;;;;12.93;6.13;;;;;;;15.91;100.00;98698.72;5094423;28;20226;-81
2023/10/10 08:43:53;;;;;;;12.10;5.57;;;;;;;15.98;99.90;98693.59;5095067;28;20293;-81
2023/10/10 08:46:23;;;;;;;11.73;5.40;;;;;;;16.06;98.56;98700.16;5094697;28;20210;-80
2023/10/10 08:48:50;;;;;;;9.60;5.27;;;;;;;16.14;97.71;98683.38;5093644;28;20233;-79
2023/10/10 08:51:18;;;;;;;17.07;5.83;;;;;;;16.23;96.46;98682.63;5094102;28;20226;-80
2023/10/10 08:53:45;;;;;;;14.87;5.40;;;;;;;16.36;95.09;98677.09;5094795;28;20227;-81
2023/10/10 08:56:14;;;;;;;10.27;4.93;;;;;;;16.45;93.23;98676.38;5094433;28;20221;-80
2023/10/10 08:58:41;;;;;;;10.80;5.30;;;;;;;16.56;91.93;98671.81;5094220;28;20218;-81
2023/10/10 09:01:08;;;;;;;11.03;5.30;;;;;;;16.67;91.39;98665.56;5094256;28;20249;-80
2023/10/10 09:03:35;;;;;;;12.87;5.70;;;;;;;16.76;91.05;98670.94;5093576;28;20276;-80
2023/10/10 09:06:14;;;;;;;9.07;5.10;;;;;;;16.87;89.87;98665.53;5094007;28;20217;-81
2023/10/10 09:08:44;;;;;;;12.70;4.53;;;;;;;16.98;88.19;98670.81;5093937;28;20209;-80
2023/10/10 09:11:11;;;;;;;8.80;4.73;;;;;;;17.10;86.47;98659.06;5093207;28;20244;-81
2023/10/10 09:13:48;;;;;;;9.33;4.33;;;;;;;17.28;85.23;98662.78;5094804;28;20225;-81
2023/10/10 09:16:14;;;;;;;7.63;4.00;;;;;;;17.43;83.88;98656.13;5094495;28;20663;-80
2023/10/10 09:18:42;;;;;;;8.77;3.80;;;;;;;17.53;83.02;98651.66;5094433;28;20207;-82
2023/10/10 09:21:18;;;;;;;9.57;4.03;;;;;;;17.62;82.72;98656.16;5094745;28;20223;-81
2023/10/10 09:24:07;;;;;;;7.75;3.85;;;;;;;17.74;81.97;98659.59;5092642;28;20899;-81
2023/10/10 09:26:36;;;;;;;8.03;4.40;;;;;;;17.83;81.47;98662.28;5094065;28;20201;-82
2023/10/10 09:29:15;;;;;;;9.97;4.77;;;;;;;18.07;79.01;98652.03;5093628;28;20238;-81
2023/10/10 09:31:45;;;;;;;9.33;4.10;;;;;;;18.16;78.48;98650.34;5093007;28;20261;-82
2023/10/10 09:34:18;;;;;;;10.43;4.80;;;;;;;18.23;77.55;98654.16;5094076;28;20207;-81
2023/10/10 09:36:51;;;;;;;8.03;4.03;;;;;;;18.29;76.42;98650.91;5113796;28;20580;-78
2023/10/10 09:39:27;;;;;;;10.88;4.38;;;;;;;18.48;73.33;98630.34;5113946;28;20427;-80
2023/10/10 09:42:06;;;;;;;6.27;3.90;;;;;;;18.70;72.86;98629.16;5112775;28;20592;-79
2023/10/10 09:44:53;;;;;;;10.67;4.60;;;;;;;18.80;72.41;98628.19;5118712;27;20210;-79
2023/10/10 09:50:29;;;;;;;8.93;4.40;;;;;;;18.90;70.13;98628.16;5113172;28;20300;-81
2023/10/10 09:52:53;;;;;;;9.23;4.10;;;;;;;18.94;68.71;98622.34;5112891;28;20234;-81
2023/10/10 09:55:39;;;;;;;8.93;4.07;;;;;;;19.00;67.56;98618.22;5114265;28;20205;-80
2023/10/10 09:58:24;;;;;;;8.90;4.17;;;;;;;19.08;66.78;98616.50;5114168;28;20222;-81
2023/10/10 10:00:52;;;;;;;11.77;4.30;;;;;;;19.15;66.52;98614.91;5114343;28;20687;-81
2023/10/10 10:03:35;;;;;;;8.93;3.83;;;;;;;19.24;66.61;98614.09;5113682;28;20210;-81
2023/10/10 10:06:34;;;;;;;11.40;4.27;;;;;;;19.37;66.37;98621.75;5114485;28;20213;-81
2023/10/10 10:09:32;;;;;;;9.47;4.10;;;;;;;19.46;66.20;98624.44;5112993;28;20214;-79
2023/10/10 10:12:13;;;;;;;8.43;4.27;;;;;;;19.56;65.29;98624.38;5112164;28;20229;-80
2023/10/10 10:14:48;;;;;;;8.63;3.97;;;;;;;19.68;64.14;98624.00;5113048;28;20568;-80
2023/10/10 10:17:24;;;;;;;10.67;3.93;;;;;;;19.78;62.63;98613.19;5112908;28;20233;-80
2023/10/10 10:19:51;;;;;;;8.63;4.10;;;;;;;19.84;61.14;98610.78;5113244;28;20587;-79
2023/10/10 10:22:18;;;;;;;7.23;4.07;;;;;;;19.91;61.20;98614.53;5112569;28;20222;-81
2023/10/10 10:24:56;;;;;;;8.57;3.80;;;;;;;20.01;61.75;98619.81;5113040;28;20210;-80
2023/10/10 10:27:31;;;;;;;7.80;3.57;;;;;;;20.11;61.05;98610.72;5112139;28;20212;-79
2023/10/10 10:30:18;;;;;;;7.80;3.67;;;;;;;20.21;60.97;98618.69;5112653;28;20224;-79
2023/10/10 10:32:46;;;;;;;10.73;4.10;;;;;;;20.35;60.30;98610.94;5112860;28;20240;-79
2023/10/10 10:35:20;;;;;;;8.53;4.13;;;;;;;20.39;59.75;98604.28;5113059;28;20214;-79
2023/10/10 10:37:55;;;;;;;8.70;3.60;;;;;;;20.50;60.00;98606.72;5112746;28;20343;-79
2023/10/10 10:40:24;;;;;;;5.90;3.37;;;;;;;20.61;59.90;98613.66;5112598;28;20220;-84
2023/10/10 10:42:53;;;;;;;8.53;4.20;;;;;;;20.73;59.31;98609.72;5112352;28;20233;-80
2023/10/10 10:45:35;;;;;;;8.70;4.30;;;;;;;20.89;57.99;98597.25;5112641;28;20213;-81
2023/10/10 10:48:07;;;;;;;7.37;3.77;;;;;;;21.00;55.63;98575.50;5112618;28;20667;-80
2023/10/10 10:53:08;;;;;;;7.53;4.30;;;;;;;21.11;55.60;98582.44;5070370;28;20219;-81
2023/10/10 10:55:39;;;;;;;9.47;3.80;;;;;;;21.20;55.00;98574.22;5072745;28;20251;-81
2023/10/10 10:58:07;;;;;;;11.27;3.53;;;;;;;21.30;54.88;98585.72;5071694;28;20285;-81
2023/10/10 11:00:57;;;;;;;6.80;3.60;;;;;;;21.33;54.02;98574.63;5071563;28;20559;-80
2023/10/10 11:03:24;;;;;;;7.17;3.80;;;;;;;21.40;53.62;98597.16;5071439;28;20215;-83
2023/10/10 11:05:55;;;;;;;9.13;3.80;;;;;;;21.43;54.02;98596.84;5072133;28;20207;-82
2023/10/10 11:08:51;;;;;;;11.40;4.20;;;;;;;21.40;52.61;98586.41;5071641;28;20302;-81
2023/10/10 11:11:23;;;;;;;10.73;4.27;;;;;;;21.39;52.41;98595.50;5071520;28;20231;-80
2023/10/10 11:13:51;;;;;;;8.47;4.10;;;;;;;21.38;51.49;98593.81;5072190;28;20211;-81
2023/10/10 11:16:19;;;;;;;7.10;4.10;;;;;;;21.38;52.24;98603.72;5071681;28;20751;-81
2023/10/10 11:18:57;;;;;;;7.33;3.70;;;;;;;21.37;52.82;98604.72;5071939;28;20241;-81
2023/10/10 11:21:27;;;;;;;8.90;4.33;;;;;;;21.43;53.52;98604.94;5071216;28;20713;-80
2023/10/10 11:23:57;;;;;;;7.83;3.67;;;;;;;21.44;52.64;98590.47;5071770;28;20294;-80
2023/10/10 11:26:24;;;;;;;10.03;3.63;;;;;;;21.41;52.80;98592.63;5072033;28;20207;-81
2023/10/10 11:28:52;;;;;;;8.77;3.97;;;;;;;21.44;53.67;98597.69;5071905;28;20690;-81
2023/10/10 11:31:23;;;;;;;7.93;3.50;;;;;;;21.44;53.94;98593.16;5071823;28;20284;-81
2023/10/10 11:33:55;;;;;;;6.83;3.70;;;;;;;21.46;53.62;98590.31;5071898;28;20203;-80
2023/10/10 11:36:29;;;;;;;5.97;3.63;;;;;;;21.46;52.44;98575.00;5071983;28;20183;-80
2023/10/10 11:39:14;;;;;;;7.97;4.00;;;;;;;21.50;52.72;98579.06;5070950;28;20310;-81
2023/10/10 11:41:40;;;;;;;8.13;3.80;;;;;;;21.56;52.43;98575.72;5071004;28;20227;-81
2023/10/10 11:44:08;;;;;;;10.13;3.87;;;;;;;21.59;53.92;98580.75;5071627;28;20658;-81
2023/10/10 11:46:38;;;;;;;10.53;4.23;;;;;;;21.67;52.82;98567.38;5071925;28;20218;-81
2023/10/10 11:49:05;;;;;;;8.87;4.43;;;;;;;21.69;51.43;98553.75;5075877;28;20215;-81
2023/10/10 11:51:35;;;;;;;9.03;4.20;;;;;;;21.76;52.02;98550.22;5074883;28;20239;-81
2023/10/10 11:54:01;;;;;;;8.10;4.17;;;;;;;21.72;52.18;98556.97;5075419;28;20292;-81
2023/10/10 11:56:31;;;;;;;9.37;4.17;;;;;;;21.73;50.75;98544.34;5075605;28;20681;-81
2023/10/10 11:58:57;;;;;;;6.83;3.63;;;;;;;21.70;51.17;98544.69;5075157;28;20238;-81
2023/10/10 12:04:20;;;;;;;9.60;3.93;;;;;;;21.82;51.27;98549.56;5074839;28;20211;-81
2023/10/10 12:06:47;;;;;;;7.77;3.70;;;;;;;21.84;50.77;98547.56;5075113;28;20207;-81
2023/10/10 12:09:16;;;;;;;8.52;4.10;;;;;;;21.88;51.24;98543.50;5072959;28;20434;-82
2023/10/10 12:11:43;;;;;;;9.53;4.30;;;;;;;21.91;51.44;98545.88;5070776;28;20266;-82
2023/10/10 12:14:18;;;;;;;7.47;4.30;;;;;;;22.01;50.24;98530.41;5073779;28;20208;-82
2023/10/10 12:16:50;;;;;;;8.37;3.80;;;;;;;22.13;49.94;98531.75;5074079;28;20211;-82
2023/10/10 12:19:16;;;;;;;8.53;3.93;;;;;;;22.05;49.45;98518.31;5074397;28;20729;-81
2023/10/10 12:21:43;;;;;;;7.80;3.72;;;;;;;22.06;49.33;98522.66;5073760;28;21062;-82
2023/10/10 12:24:09;;;;;;;8.33;3.70;;;;;;;22.11;49.74;98528.41;5074766;28;20709;-79
2023/10/10 12:26:41;;;;;;;12.07;4.70;;;;;;;22.17;50.19;98530.41;5074786;28;20241;-80
2023/10/10 12:29:10;;;;;;;7.53;4.05;;;;;;;22.26;49.60;98524.00;5073674;28;20426;-81
2023/10/10 12:31:37;;;;;;;8.37;4.07;;;;;;;22.29;48.80;98514.75;5073710;28;20235;-81
2023/10/10 12:34:09;;;;;;;8.10;4.30;;;;;;;22.31;47.81;98504.66;5074470;28;20203;-80
2023/10/10 12:36:36;;;;;;;7.63;4.07;;;;;;;22.30;47.63;98495.72;5074732;28;20207;-81
2023/10/10 12:39:04;;;;;;;7.77;4.13;;;;;;;22.29;47.63;98501.28;5074263;28;20237;-81
2023/10/10 12:41:35;;;;;;;9.03;4.37;;;;;;;22.29;47.82;98502.13;5074088;28;20227;-81
2023/10/10 12:44:06;;;;;;;10.33;4.73;;;;;;;22.34;48.32;98499.78;5074225;28;20684;-80
2023/10/10 12:46:34;;;;;;;9.27;4.13;;;;;;;22.45;47.14;98493.22;5074644;28;20249;-81
2023/10/10 12:49:00;;;;;;;8.63;3.67;;;;;;;22.50;46.10;98488.97;5074386;28;20299;-80
2023/10/10 12:51:30;;;;;;;9.93;4.13;;;;;;;22.56;45.43;98480.22;5073143;28;20239;-79
2023/10/10 12:54:01;;;;;;;11.50;4.37;;;;;;;22.64;45.68;98487.44;5074198;28;20211;-78
2023/10/10 12:56:27;;;;;;;7.03;4.13;;;;;;;22.61;45.94;98482.41;5073899;28;20211;-80
2023/10/10 12:58:57;;;;;;;7.77;4.47;;;;;;;22.75;45.04;98479.81;5073469;28;20253;-80
2023/10/10 13:01:25;;;;;;;10.87;4.30;;;;;;;22.73;44.75;98471.06;5073421;28;20234;-80
2023/10/10 13:03:52;;;;;;;8.90;3.83;;;;;;;22.76;44.39;98470.75;5074115;28;20302;-80
2023/10/10 13:06:22;;;;;;;8.47;4.20;;;;;;;22.68;44.39;98473.44;5074265;28;20214;-79
2023/10/10 13:08:55;;;;;;;8.33;4.33;;;;;;;22.81;43.77;98471.03;5074643;28;20275;-80
2023/10/10 13:11:32;;;;;;;7.50;3.70;;;;;;;22.72;44.18;98469.41;5075847;28;20436;-80
2023/10/10 13:14:09;;;;;;;8.10;4.30;;;;;;;22.85;43.51;98469.69;5076406;28;20269;-80
2023/10/10 13:16:52;;;;;;;7.73;4.30;;;;;;;22.84;43.58;98465.31;5076573;28;20264;-80
2023/10/10 13:19:20;;;;;;;9.10;4.30;;;;;;;22.88;43.14;98463.09;5078466;28;20285;-80
2023/10/10 13:21:48;;;;;;;8.13;3.90;;;;;;;22.89;43.28;98471.03;5077989;28;20332;-80
2023/10/10 13:24:18;;;;;;;8.30;3.80;;;;;;;22.91;43.86;98468.97;5079061;28;20314;-79
2023/10/10 13:26:49;;;;;;;7.37;4.10;;;;;;;23.07;45.51;98484.25;5077019;28;20317;-81
2023/10/10 13:29:16;;;;;;;10.10;4.17;;;;;;;23.18;45.62;98486.59;5077557;28;20208;-80
2023/10/10 13:31:44;;;;;;;9.40;3.97;;;;;;;23.20;44.87;98485.41;5077384;28;20231;-81
2023/10/10 13:34:11;;;;;;;10.13;4.63;;;;;;;23.16;45.21;98473.28;5076438;28;20215;-80
2023/10/10 13:36:37;;;;;;;10.53;4.27;;;;;;;23.23;44.95;98479.63;5076322;28;20213;-80
2023/10/10 13:39:07;;;;;;;8.60;4.53;;;;;;;23.19;45.74;98481.03;5075400;28;20227;-80
2023/10/10 13:41:35;;;;;;;9.50;4.20;;;;;;;23.20;45.42;98485.41;5073499;28;20227;-79
2023/10/10 13:44:03;;;;;;;8.50;4.20;;;;;;;23.18;46.26;98486.59;5074353;28;20208;-81
2023/10/10 13:46:33;;;;;;;9.63;4.30;;;;;;;23.33;43.45;98466.78;5073608;28;20208;-79
2023/10/10 13:49:00;;;;;;;12.13;4.93;;;;;;;23.37;43.51;98468.13;5073390;28;20208;-79